Time;durP1;ratioP1;P1;durP2;ratioP2;P2;SDS_P1;SDS_P2;PMS_P1;PMS_P2;Temp;Humidity;BMP_temperature;BMP_pressure;BME280_temperature;BME280_humidity;BME280_pressure;Samples;Min_cycle;Max_cycle;Signal;HPM_P1;HPM_P2
2023/10/07 00:01:08;;;;;;;1.65;1.20;;;;;;;1.95;nan;98639.06;4861752;29;20063;-72
2023/10/07 00:03:34;;;;;;;7.50;2.55;;;;;;;1.95;nan;98623.28;4860735;29;20052;-69
2023/10/07 00:06:02;;;;;;;3.83;1.30;;;;;;;1.92;nan;98613.78;4862243;29;20397;-72
2023/10/07 00:08:28;;;;;;;2.10;1.17;;;;;;;1.90;nan;98610.41;4860242;29;20424;-72
2023/10/07 00:10:58;;;;;;;1.13;1.02;;;;;;;1.90;nan;98620.91;4862017;29;20515;-73
2023/10/07 00:13:26;;;;;;;1.80;1.27;;;;;;;1.90;nan;98614.81;4863217;29;20044;-73
2023/10/07 00:15:51;;;;;;;1.75;1.30;;;;;;;1.90;nan;98622.69;4860498;29;20056;-74
2023/10/07 00:18:22;;;;;;;1.95;1.30;;;;;;;1.91;nan;98611.25;4845003;29;20057;-74
2023/10/07 00:20:54;;;;;;;1.33;1.13;;;;;;;1.87;nan;98610.56;4844917;29;20424;-73
2023/10/07 00:23:23;;;;;;;1.92;0.90;;;;;;;1.86;nan;98611.50;4861544;29;20044;-73
2023/10/07 00:25:50;;;;;;;2.20;1.27;;;;;;;1.85;nan;98614.19;4861502;29;20044;-73
2023/10/07 00:28:33;;;;;;;2.22;1.55;;;;;;;1.85;nan;98653.63;4844307;29;20057;-73
2023/10/07 00:31:02;;;;;;;2.88;1.17;;;;;;;1.82;nan;98608.16;4845046;29;20059;-70
2023/10/07 00:33:45;;;;;;;2.05;1.20;;;;;;;1.82;nan;98613.41;4844868;29;20056;-73
2023/10/07 00:36:14;;;;;;;2.15;1.15;;;;;;;1.77;nan;98657.50;4860441;29;20063;-73
2023/10/07 00:38:41;;;;;;;3.65;1.40;;;;;;;1.76;nan;98621.63;4846395;29;20055;-74
2023/10/07 00:41:11;;;;;;;2.47;1.70;;;;;;;1.80;nan;98593.44;4842404;29;20032;-74
2023/10/07 00:43:37;;;;;;;1.60;1.40;;;;;;;1.76;nan;98629.53;4879904;29;20052;-74
2023/10/07 00:46:21;;;;;;;2.95;1.80;;;;;;;1.77;nan;98588.34;4887222;29;20051;-72
2023/10/07 00:48:52;;;;;;;1.90;1.33;;;;;;;;;;4872502;29;20053;-73
2023/10/07 00:51:22;;;;;;;2.28;1.42;;;;;;;1.73;nan;98571.88;4882980;29;20059;-71
2023/10/07 00:53:57;;;;;;;2.80;1.38;;;;;;;1.71;nan;98568.47;4855935;29;20045;-73
2023/10/07 00:56:24;;;;;;;5.18;1.73;;;;;;;1.70;nan;98556.25;4861570;29;20040;-74
2023/10/07 00:58:52;;;;;;;4.22;1.20;;;;;;;1.68;nan;98599.31;4859625;29;20064;-73
2023/10/07 01:01:19;;;;;;;1.65;1.25;;;;;;;;;;4861158;29;20036;-71
2023/10/07 01:03:48;;;;;;;3.10;1.20;;;;;;;1.63;nan;98548.78;4844987;29;20056;-71
2023/10/07 01:06:25;;;;;;;3.60;1.45;;;;;;;1.61;nan;98541.00;4836820;29;20427;-74
2023/10/07 01:08:55;;;;;;;3.03;1.13;;;;;;;1.58;nan;98519.31;4861796;29;20040;-73
2023/10/07 01:11:23;;;;;;;3.33;1.65;;;;;;;1.58;nan;98528.00;4831379;29;20056;-78
2023/10/07 01:13:50;;;;;;;6.40;1.60;;;;;;;1.56;nan;98537.78;4846593;29;20048;-71
2023/10/07 01:16:26;;;;;;;1.60;1.30;;;;;;;1.53;nan;98542.34;4861737;29;20053;-72
2023/10/07 01:18:58;;;;;;;2.42;1.75;;;;;;;;;;4846786;29;20052;-74
2023/10/07 01:21:31;;;;;;;3.40;1.90;;;;;;;1.50;nan;98538.09;4863512;29;20052;-74
2023/10/07 01:23:58;;;;;;;3.20;1.10;;;;;;;1.51;nan;98538.94;4864801;29;20041;-74
2023/10/07 01:26:28;;;;;;;2.55;1.55;;;;;;;;;;4848796;29;20052;-74
2023/10/07 01:29:13;;;;;;;3.55;1.65;;;;;;;1.49;nan;98530.28;4864968;29;20037;-73
2023/10/07 01:31:43;;;;;;;2.65;1.67;;;;;;;1.50;nan;98532.81;4848414;29;20068;-73
2023/10/07 01:34:13;;;;;;;2.75;1.85;;;;;;;1.45;nan;98517.34;4864673;29;20048;-73
2023/10/07 01:36:40;;;;;;;3.35;1.75;;;;;;;;;;4859860;29;20048;-72
2023/10/07 01:39:06;;;;;;;2.03;1.40;;;;;;;1.45;nan;98525.22;4863618;29;20045;-73
2023/10/07 01:41:37;;;;;;;2.10;1.52;;;;;;;1.43;nan;98521.81;4863930;29;20052;-72
2023/10/07 01:44:06;;;;;;;6.18;2.08;;;;;;;1.40;nan;98507.97;4877308;29;20052;-72
2023/10/07 01:46:32;;;;;;;4.75;2.63;;;;;;;1.34;nan;98506.53;4852793;29;20049;-71
2023/10/07 01:49:11;;;;;;;3.65;1.92;;;;;;;1.37;nan;98500.25;4874042;29;20043;-73
2023/10/07 01:51:44;;;;;;;4.15;1.80;;;;;;;1.32;nan;98507.53;4868556;29;20052;-73
2023/10/07 01:54:11;;;;;;;4.13;2.00;;;;;;;1.30;nan;98494.50;4865563;29;20049;-73
2023/10/07 01:56:38;;;;;;;4.45;2.10;;;;;;;1.25;nan;98490.41;4864557;29;20540;-69
2023/10/07 01:59:09;;;;;;;3.53;2.55;;;;;;;1.18;nan;98489.03;4847047;29;20055;-70
2023/10/07 02:01:35;;;;;;;6.75;2.42;;;;;;;1.16;nan;98489.09;4863804;29;20056;-72
2023/10/07 02:04:06;;;;;;;3.25;2.17;;;;;;;1.16;nan;98480.38;4864367;29;20045;-72
2023/10/07 02:06:31;;;;;;;4.15;2.00;;;;;;;1.06;nan;98485.25;4847979;29;20402;-71
2023/10/07 02:08:57;;;;;;;6.22;1.70;;;;;;;;;;4864585;29;20451;-72
2023/10/07 02:11:30;;;;;;;3.47;2.00;;;;;;;1.06;nan;98480.00;4847983;29;20052;-70
2023/10/07 02:13:58;;;;;;;3.08;1.85;;;;;;;1.06;nan;98475.63;4865562;29;20052;-70
2023/10/07 02:16:25;;;;;;;3.58;2.05;;;;;;;1.03;nan;98470.50;4867760;29;20147;-76
2023/10/07 02:18:51;;;;;;;3.45;1.77;;;;;;;0.91;nan;98475.53;4865943;29;20055;-74
2023/10/07 02:21:22;;;;;;;5.20;2.35;;;;;;;0.84;nan;98480.25;4861711;29;20048;-75
2023/10/07 02:23:49;;;;;;;3.08;1.98;;;;;;;0.83;nan;98464.59;4846403;29;20048;-74
2023/10/07 02:26:19;;;;;;;6.43;2.22;;;;;;;0.79;nan;98482.25;4854500;29;20040;-74
2023/10/07 02:28:46;;;;;;;2.92;2.03;;;;;;;0.78;nan;98471.88;4847755;29;20393;-72
2023/10/07 02:31:17;;;;;;;3.22;1.60;;;;;;;0.73;nan;98457.19;4861361;29;20051;-73
2023/10/07 02:33:42;;;;;;;3.80;1.90;;;;;;;0.78;nan;98449.13;4845832;29;20052;-71
2023/10/07 02:36:13;;;;;;;3.33;1.73;;;;;;;0.77;nan;98446.56;4847120;29;20050;-69
2023/10/07 02:38:41;;;;;;;7.72;2.50;;;;;;;0.77;nan;98441.31;4863820;29;20488;-71
2023/10/07 02:41:17;;;;;;;4.22;1.95;;;;;;;;;;4847581;29;20044;-71
2023/10/07 02:43:43;;;;;;;2.08;1.88;;;;;;;;;;4863735;29;20048;-69
2023/10/07 02:46:08;;;;;;;2.08;1.63;;;;;;;0.83;nan;98446.22;4849601;29;20060;-67
2023/10/07 02:48:38;;;;;;;2.10;1.67;;;;;;;0.82;nan;98482.09;4849228;29;20040;-78
2023/10/07 02:51:07;;;;;;;6.40;2.40;;;;;;;0.85;nan;98444.38;4861875;29;20554;-77
2023/10/07 02:53:35;;;;;;;6.88;2.50;;;;;;;0.89;nan;98508.91;4846773;29;20048;-76
2023/10/07 02:56:03;;;;;;;3.50;2.25;;;;;;;0.92;nan;98478.09;4832074;29;20558;-77
2023/10/07 02:58:48;;;;;;;2.08;1.65;;;;;;;0.95;nan;98440.34;4842014;29;20056;-75
2023/10/07 03:01:18;;;;;;;4.38;2.25;;;;;;;1.00;nan;98428.72;4831558;29;20523;-78
2023/10/07 03:03:48;;;;;;;1.80;1.52;;;;;;;1.02;nan;98416.34;4848516;29;20057;-75
2023/10/07 03:06:17;;;;;;;3.75;1.95;;;;;;;1.08;nan;98436.16;4846964;29;20416;-77
2023/10/07 03:08:57;;;;;;;4.93;1.98;;;;;;;1.16;nan;98401.63;4865208;29;20060;-85
2023/10/07 03:11:23;;;;;;;7.03;2.30;;;;;;;1.19;nan;98393.59;4854138;29;20048;-81
2023/10/07 03:13:50;;;;;;;4.93;2.40;;;;;;;1.21;nan;98384.72;4861285;29;20045;-85
2023/10/07 03:24:13;;;;;;;5.75;1.80;;;;;;;;;;4854477;29;20416;-79
2023/10/07 03:26:47;;;;;;;2.95;2.40;;;;;;;1.33;nan;98362.22;4865516;29;20044;-76
2023/10/07 03:29:30;;;;;;;2.13;1.70;;;;;;;;;;4864152;29;20044;-77
2023/10/07 03:31:55;;;;;;;3.95;2.65;;;;;;;1.32;nan;98371.03;4829401;29;20056;-77
2023/10/07 03:34:20;;;;;;;4.03;1.95;;;;;;;1.36;nan;98335.75;4827633;29;20519;-76
2023/10/07 03:37:14;;;;;;;3.05;1.95;;;;;;;1.36;nan;98347.13;4847432;29;20067;-76
2023/10/07 03:42:15;;;;;;;4.30;2.45;;;;;;;1.36;nan;98314.75;4864347;29;20063;-79
2023/10/07 03:44:40;;;;;;;1.35;1.25;;;;;;;1.37;nan;98326.97;4871240;29;20062;-80
2023/10/07 03:47:10;;;;;;;3.10;1.85;;;;;;;1.29;nan;98295.03;4883386;29;20054;-80
2023/10/07 03:49:39;;;;;;;2.13;1.92;;;;;;;;;;4863380;29;20058;-78
2023/10/07 03:52:07;;;;;;;3.28;2.80;;;;;;;1.26;nan;98277.69;4873773;29;20500;-76
2023/10/07 03:54:34;;;;;;;5.93;3.20;;;;;;;1.28;nan;98283.69;4845197;29;20053;-77
2023/10/07 03:57:00;;;;;;;4.75;2.67;;;;;;;1.31;nan;98280.06;4830881;29;20057;-77
2023/10/07 03:59:36;;;;;;;6.20;2.72;;;;;;;1.27;nan;98268.03;4847095;29;20072;-73
2023/10/07 04:04:59;;;;;;;4.75;2.72;;;;;;;1.25;nan;98311.88;4847028;29;20057;-75
2023/10/07 04:07:27;;;;;;;4.03;2.28;;;;;;;1.38;nan;98261.25;4861449;29;20505;-72
2023/10/07 04:09:53;;;;;;;3.78;2.40;;;;;;;;;;4845700;29;20063;-74
2023/10/07 04:12:18;;;;;;;3.42;2.17;;;;;;;1.71;nan;98247.13;4863155;29;20068;-74
2023/10/07 04:14:43;;;;;;;4.00;2.10;;;;;;;1.80;nan;98239.56;4831464;29;20060;-77
2023/10/07 04:17:12;;;;;;;4.72;2.40;;;;;;;1.77;nan;98279.16;4864070;29;20048;-73
2023/10/07 04:19:42;;;;;;;2.92;1.90;;;;;;;1.85;nan;98227.91;4830570;29;20065;-74
2023/10/07 04:22:11;;;;;;;2.85;2.10;;;;;;;1.88;nan;98260.13;4845928;29;20508;-75
2023/10/07 04:24:43;;;;;;;6.35;2.45;;;;;;;;;;4847082;29;20083;-73
2023/10/07 04:27:08;;;;;;;6.00;2.13;;;;;;;1.80;nan;98209.81;4862289;29;20044;-74
2023/10/07 04:29:33;;;;;;;5.03;2.97;;;;;;;1.88;nan;98206.72;4846409;29;20063;-74
2023/10/07 04:32:12;;;;;;;5.80;2.63;;;;;;;1.90;nan;98253.00;4863064;29;20040;-74
2023/10/07 04:35:01;;;;;;;4.15;2.38;;;;;;;1.92;nan;98203.00;4846448;29;20060;-75
2023/10/07 04:37:29;;;;;;;2.63;2.03;;;;;;;1.84;nan;98216.56;4862328;29;20055;-74
2023/10/07 04:42:47;;;;;;;4.70;2.47;;;;;;;;;;4863199;29;20044;-74
2023/10/07 04:45:24;;;;;;;3.20;2.58;;;;;;;1.93;nan;98191.50;4861534;29;20052;-74
2023/10/07 04:47:57;;;;;;;6.18;2.83;;;;;;;1.85;nan;98165.72;4845268;29;20049;-74
2023/10/07 04:50:36;;;;;;;2.30;2.08;;;;;;;1.92;nan;98182.78;4862396;29;20504;-77
2023/10/07 04:53:03;;;;;;;3.75;2.10;;;;;;;1.91;nan;98146.13;4847624;29;20056;-78
2023/10/07 04:55:29;;;;;;;6.30;2.78;;;;;;;1.96;nan;98152.78;4866607;29;20051;-77
2023/10/07 05:02:59;;;;;;;5.15;2.63;;;;;;;1.88;nan;98127.91;4864906;29;20055;-73
2023/10/07 05:05:30;;;;;;;5.53;2.70;;;;;;;1.92;nan;98122.34;4879911;29;20024;-73
2023/10/07 05:08:08;;;;;;;6.40;2.95;;;;;;;1.96;nan;98112.50;4871229;29;20057;-72
2023/10/07 05:10:38;;;;;;;5.38;2.13;;;;;;;1.95;nan;98103.78;4885949;29;20040;-72
2023/10/07 05:13:06;;;;;;;3.22;2.15;;;;;;;2.06;nan;98117.09;4870696;29;20044;-73
2023/10/07 05:15:31;;;;;;;6.50;2.15;;;;;;;2.10;nan;98102.00;4869095;29;20064;-73
2023/10/07 05:18:01;;;;;;;4.90;1.98;;;;;;;2.27;nan;98087.78;4863682;29;20060;-76
2023/10/07 05:20:29;;;;;;;5.07;2.30;;;;;;;2.22;nan;98082.84;4863963;29;20056;-76
2023/10/07 05:22:55;;;;;;;5.22;2.55;;;;;;;2.30;nan;98077.94;4847445;29;20056;-76
2023/10/07 05:25:21;;;;;;;3.72;3.03;;;;;;;2.11;nan;98094.03;4860946;29;20052;-72
2023/10/07 05:27:47;;;;;;;8.13;3.80;;;;;;;2.14;nan;98061.44;4845957;29;20432;-73
2023/10/07 05:30:15;;;;;;;4.95;3.63;;;;;;;2.07;nan;98057.50;4845861;29;20185;-73
2023/10/07 05:32:40;;;;;;;6.00;3.40;;;;;;;2.18;nan;98042.75;4845783;29;20049;-73
2023/10/07 05:35:06;;;;;;;2.00;1.48;;;;;;;2.34;nan;98033.88;4863039;29;20408;-73
2023/10/07 05:37:32;;;;;;;5.28;2.72;;;;;;;;;;4863024;29;20059;-72
2023/10/07 05:39:59;;;;;;;6.43;3.90;;;;;;;2.37;nan;98016.09;4861420;29;20056;-72
2023/10/07 05:42:25;;;;;;;4.95;2.92;;;;;;;;;;4860933;29;20416;-72
2023/10/07 05:44:50;;;;;;;11.52;4.03;;;;;;;2.28;nan;97995.66;4845410;29;20052;-72
2023/10/07 05:47:16;;;;;;;6.60;2.83;;;;;;;2.34;nan;97990.03;4862087;29;20048;-74
2023/10/07 05:49:42;;;;;;;4.78;2.45;;;;;;;;;;4845810;29;20063;-78
2023/10/07 05:52:07;;;;;;;8.45;3.60;;;;;;;2.46;nan;98009.44;4847067;29;20052;-73
2023/10/07 05:54:32;;;;;;;6.90;2.78;;;;;;;;;;4861626;29;20044;-74
2023/10/07 05:56:58;;;;;;;4.43;2.42;;;;;;;;;;4846514;29;20049;-77
2023/10/07 05:59:23;;;;;;;4.72;2.03;;;;;;;;;;4865007;29;20051;-77
2023/10/07 06:01:48;;;;;;;4.13;2.47;;;;;;;2.70;nan;97933.31;4864964;29;20045;-76
2023/10/07 06:04:14;;;;;;;4.53;2.38;;;;;;;2.74;nan;97924.25;4882543;29;20039;-75
2023/10/07 06:06:42;;;;;;;4.80;2.47;;;;;;;;;;4887088;29;20039;-75
2023/10/07 06:09:10;;;;;;;5.32;2.25;;;;;;;2.78;nan;97899.44;4871731;29;20048;-75
2023/10/07 06:11:35;;;;;;;6.45;2.67;;;;;;;2.82;nan;97885.13;4863777;29;20562;-78
2023/10/07 06:14:02;;;;;;;4.70;1.58;;;;;;;2.77;nan;97867.03;4877814;29;20431;-78
2023/10/07 06:16:29;;;;;;;2.67;1.70;;;;;;;2.73;nan;97869.94;4875159;29;20053;-79
2023/10/07 06:18:56;;;;;;;8.90;2.38;;;;;;;;;;4858199;29;20044;-78
2023/10/07 06:21:27;;;;;;;4.60;2.22;;;;;;;2.73;nan;97855.00;4853723;29;20052;-76
2023/10/07 06:23:53;;;;;;;2.60;2.28;;;;;;;;;;4851466;29;20507;-80
2023/10/07 06:26:18;;;;;;;3.80;2.30;;;;;;;2.87;nan;97835.66;4867717;29;20048;-79
2023/10/07 06:28:48;;;;;;;3.92;2.53;;;;;;;2.72;nan;97832.28;4866500;29;20063;-79
2023/10/07 06:31:17;;;;;;;6.57;3.17;;;;;;;2.72;nan;97841.94;4864727;29;20056;-76
2023/10/07 06:33:59;;;;;;;3.17;2.13;;;;;;;2.70;nan;97860.50;4865430;29;20056;-75
2023/10/07 06:36:26;;;;;;;4.45;2.30;;;;;;;2.50;nan;97803.13;4851537;29;20518;-77
2023/10/07 06:38:58;;;;;;;5.47;4.03;;;;;;;2.65;nan;97798.59;4866521;29;20047;-80
2023/10/07 06:41:27;;;;;;;3.40;1.77;;;;;;;2.42;nan;97787.88;4867510;29;20494;-77
2023/10/07 06:43:54;;;;;;;4.25;2.30;;;;;;;2.41;nan;97775.66;4867176;29;20053;-78
2023/10/07 06:46:22;;;;;;;4.70;2.20;;;;;;;;;;4854492;29;20059;-77
2023/10/07 06:48:48;;;;;;;3.67;2.95;;;;;;;1.90;nan;97764.25;4869724;29;20067;-77
2023/10/07 06:51:14;;;;;;;3.50;2.38;;;;;;;1.82;nan;97756.88;4835568;29;20056;-77
2023/10/07 06:53:42;;;;;;;3.45;1.08;;;;;;;1.67;nan;97720.28;4865362;29;20056;-74
2023/10/07 06:56:21;;;;;;;8.55;3.20;;;;;;;1.68;nan;97727.22;4864429;29;20037;-76
2023/10/07 06:58:54;;;;;;;1.45;1.08;;;;;;;1.87;nan;97711.91;4849257;29;20071;-73
2023/10/07 07:04:14;;;;;;;6.32;2.40;;;;;;;1.92;nan;97709.00;4866089;29;20063;-75
2023/10/07 07:06:44;;;;;;;4.88;2.83;;;;;;;1.72;nan;97740.03;4849715;29;20053;-74
2023/10/07 07:11:58;;;;;;;6.03;3.70;;;;;;;1.75;nan;97676.78;4853671;29;20048;-79
2023/10/07 07:14:28;;;;;;;5.97;3.50;;;;;;;;;;4867594;29;20049;-79
2023/10/07 07:16:56;;;;;;;6.07;3.78;;;;;;;1.92;nan;97656.44;4865789;29;20052;-78
2023/10/07 07:19:23;;;;;;;4.70;2.40;;;;;;;;;;4850844;29;20448;-81
2023/10/07 07:21:48;;;;;;;4.90;2.63;;;;;;;;;;4849793;29;20065;-79
2023/10/07 07:24:14;;;;;;;5.75;3.25;;;;;;;;;;4848269;29;20808;-76
2023/10/07 07:26:39;;;;;;;9.52;3.60;;;;;;;1.82;nan;97607.13;4866007;29;20057;-77
2023/10/07 07:29:05;;;;;;;5.35;3.20;;;;;;;;;;4864121;29;20416;-78
2023/10/07 07:31:34;;;;;;;7.75;2.85;;;;;;;;;;4864288;29;20040;-77
2023/10/07 07:34:06;;;;;;;7.10;3.70;;;;;;;1.90;nan;97579.50;4864765;29;20055;-79
2023/10/07 07:39:06;;;;;;;7.18;3.83;;;;;;;1.80;nan;97595.91;4848223;29;20048;-79
2023/10/07 07:41:34;;;;;;;6.70;3.30;;;;;;;;;;4864971;29;20044;-78
2023/10/07 07:44:00;;;;;;;10.00;2.40;;;;;;;2.09;nan;97537.84;4864026;29;20079;-76
2023/10/07 07:46:51;;;;;;;4.22;2.85;;;;;;;2.02;nan;97526.09;4848042;29;20056;-74
2023/10/07 07:49:19;;;;;;;4.65;2.60;;;;;;;2.08;nan;97520.38;4864488;29;20414;-75
2023/10/07 07:51:51;;;;;;;7.00;3.83;;;;;;;;;;4863726;29;20049;-76
2023/10/07 07:54:18;;;;;;;5.10;3.20;;;;;;;2.14;nan;97499.75;4863339;29;20075;-76
2023/10/07 07:56:45;;;;;;;6.80;3.03;;;;;;;2.09;nan;97474.75;4847981;29;20477;-77
2023/10/07 07:59:13;;;;;;;5.97;3.33;;;;;;;2.15;nan;97459.38;4847306;29;20048;-78
2023/10/07 08:01:53;;;;;;;5.95;2.67;;;;;;;2.25;nan;97496.38;4847846;29;20056;-78
2023/10/07 08:04:43;;;;;;;4.40;2.88;;;;;;;2.36;nan;97428.09;4846762;29;20052;-76
2023/10/07 08:07:27;;;;;;;4.10;2.55;;;;;;;2.46;nan;97405.41;4848411;29;20052;-78
2023/10/07 08:09:53;;;;;;;4.38;2.63;;;;;;;2.60;nan;97390.41;4847312;29;20056;-78
2023/10/07 08:12:28;;;;;;;4.43;2.10;;;;;;;2.68;nan;97369.59;4863647;29;20047;-78
2023/10/07 08:14:58;;;;;;;6.95;3.95;;;;;;;2.67;nan;97360.88;4862957;29;20060;-79
2023/10/07 08:17:27;;;;;;;5.20;2.85;;;;;;;;;;4862792;29;20047;-74
2023/10/07 08:19:52;;;;;;;6.00;3.55;;;;;;;2.81;nan;97336.16;4863009;29;20067;-75
2023/10/07 08:22:23;;;;;;;5.25;3.30;;;;;;;2.83;nan;97334.22;4861481;29;20056;-75
2023/10/07 08:24:49;;;;;;;5.10;3.03;;;;;;;2.85;nan;97327.88;4846050;29;20064;-75
2023/10/07 08:30:06;;;;;;;5.20;3.50;;;;;;;2.70;nan;97328.25;4845561;29;20059;-77
2023/10/07 08:32:37;;;;;;;6.68;3.92;;;;;;;;;;4861478;29;20040;-72
2023/10/07 08:35:03;;;;;;;9.98;5.13;;;;;;;2.68;nan;97303.84;4861350;29;20049;-72
2023/10/07 08:37:32;;;;;;;8.55;4.00;;;;;;;2.65;nan;97299.66;4862783;29;20917;-74
2023/10/07 08:40:06;;;;;;;12.32;4.68;;;;;;;;;;4862324;29;20056;-74
2023/10/07 08:42:32;;;;;;;6.75;3.53;;;;;;;2.76;nan;97302.28;4862924;29;20055;-77
2023/10/07 08:45:00;;;;;;;8.07;4.30;;;;;;;;;;4845109;29;20036;-71
2023/10/07 08:47:27;;;;;;;6.25;4.03;;;;;;;2.88;nan;97284.72;4860248;29;20044;-72
2023/10/07 08:49:56;;;;;;;6.85;3.55;;;;;;;3.02;nan;97247.63;4859971;29;20044;-73
2023/10/07 08:52:27;;;;;;;5.88;3.80;;;;;;;2.98;nan;97254.06;4860613;29;20044;-73
2023/10/07 08:54:53;;;;;;;6.40;3.92;;;;;;;3.02;nan;97234.47;4860024;29;20432;-73
2023/10/07 08:57:22;;;;;;;6.82;4.13;;;;;;;2.93;nan;97237.84;4860323;29;20060;-73
2023/10/07 08:59:52;;;;;;;9.38;4.70;;;;;;;3.19;nan;97199.72;4859995;29;20049;-74
2023/10/07 09:02:28;;;;;;;6.85;4.18;;;;;;;;;;4860607;29;20044;-73
2023/10/07 09:05:05;;;;;;;6.90;3.85;;;;;;;3.26;nan;97207.97;4844472;29;20075;-76
2023/10/07 09:07:32;;;;;;;5.40;3.17;;;;;;;;;;4844019;29;20059;-73
2023/10/07 09:10:06;;;;;;;6.47;3.08;;;;;;;;;;4859787;29;20869;-72
2023/10/07 09:12:36;;;;;;;4.63;2.63;;;;;;;;;;4844533;29;20067;-73
2023/10/07 09:15:12;;;;;;;2.70;1.95;;;;;;;;;;4861210;29;20516;-72
2023/10/07 09:17:41;;;;;;;5.45;2.97;;;;;;;;;;4859126;29;20052;-73
2023/10/07 09:20:13;;;;;;;3.03;1.83;;;;;;;;;;4859766;29;20130;-73
2023/10/07 09:22:45;;;;;;;4.70;3.05;;;;;;;3.45;nan;97152.00;4859933;29;20048;-72
2023/10/07 09:25:29;;;;;;;2.88;2.42;;;;;;;;;;4859993;29;20049;-74
2023/10/07 09:27:56;;;;;;;4.88;2.63;;;;;;;;;;4844381;29;20052;-72
2023/10/07 09:33:21;;;;;;;4.43;2.53;;;;;;;3.69;nan;97113.09;4860946;29;20053;-71
2023/10/07 09:35:48;;;;;;;3.85;2.88;;;;;;;;;;4844028;29;20527;-72
2023/10/07 09:43:33;;;;;;;6.43;2.90;;;;;;;;;;4864529;29;20061;-71
2023/10/07 09:45:58;;;;;;;2.65;2.05;;;;;;;;;;4865162;29;20055;-71
2023/10/07 09:48:29;;;;;;;4.55;2.58;;;;;;;;;;4848388;29;20040;-71
2023/10/07 09:50:55;;;;;;;4.00;2.53;;;;;;;;;;4865058;29;20409;-71
2023/10/07 09:53:40;;;;;;;2.95;2.33;;;;;;;;;;4865277;29;20059;-70
2023/10/07 09:56:29;;;;;;;1.25;1.15;;;;;;;;;;4848085;29;20055;-70
2023/10/07 09:59:25;;;;;;;4.40;2.42;;;;;;;;;;4847964;29;20049;-71
2023/10/07 10:02:05;;;;;;;3.25;2.03;;;;;;;;;;4845131;29;20072;-73
2023/10/07 10:04:36;;;;;;;2.65;2.17;;;;;;;;;;4864434;29;20051;-72
2023/10/07 10:07:21;;;;;;;2.90;2.20;;;;;;;;;;4848612;29;20051;-71
2023/10/07 10:17:53;;;;;;;4.20;2.42;;;;;;;;;;4889904;29;20060;-72
2023/10/07 10:20:20;;;;;;;3.83;3.00;;;;;;;;;;4873089;29;20058;-71
2023/10/07 10:22:52;;;;;;;6.07;2.53;;;;;;;;;;4877684;29;20047;-73
2023/10/07 10:25:36;;;;;;;3.40;2.63;;;;;;;;;;4876390;29;20055;-72
2023/10/07 10:28:07;;;;;;;3.40;2.67;;;;;;;4.20;nan;96990.94;4883952;29;20044;-78
2023/10/07 10:30:33;;;;;;;1.85;1.65;;;;;;;4.16;nan;96902.56;4839146;29;20056;-78
2023/10/07 10:33:00;;;;;;;2.67;2.05;;;;;;;4.25;nan;96888.56;4853792;29;20063;-79
2023/10/07 10:35:27;;;;;;;2.20;1.63;;;;;;;4.25;nan;96915.75;4856121;29;20049;-77
2023/10/07 10:37:56;;;;;;;4.13;2.40;;;;;;;;;;4857876;29;20056;-74
2023/10/07 10:40:21;;;;;;;2.50;2.03;;;;;;;;;;4867708;29;20043;-74
2023/10/07 10:42:49;;;;;;;3.63;2.65;;;;;;;;;;4867334;29;20060;-74
2023/10/07 10:45:21;;;;;;;5.45;2.92;;;;;;;;;;4845771;29;20045;-73
2023/10/07 10:47:50;;;;;;;4.45;2.80;;;;;;;;;;4863449;29;20044;-72
2023/10/07 10:50:17;;;;;;;3.33;2.97;;;;;;;;;;4846918;29;20079;-77
2023/10/07 10:52:41;;;;;;;3.83;2.40;;;;;;;;;;4863963;29;20060;-74
2023/10/07 10:55:08;;;;;;;3.42;2.63;;;;;;;4.57;nan;96809.13;4862756;29;20052;-74
2023/10/07 10:57:38;;;;;;;3.22;2.35;;;;;;;;;;4840667;29;20057;-73
2023/10/07 11:00:11;;;;;;;2.30;1.95;;;;;;;;;;4856604;29;20550;-74
2023/10/07 11:02:39;;;;;;;2.95;2.30;;;;;;;;;;4830029;29;20049;-72
2023/10/07 11:05:05;;;;;;;3.17;2.45;;;;;;;4.53;nan;96782.19;4861260;29;20045;-73
2023/10/07 11:07:30;;;;;;;3.80;2.33;;;;;;;;;;4827800;29;20057;-72
2023/10/07 11:09:57;;;;;;;3.13;1.98;;;;;;;4.70;nan;96773.56;4857355;29;20057;-73
2023/10/07 11:12:27;;;;;;;3.42;3.13;;;;;;;4.58;nan;96769.41;4825082;29;20048;-72
2023/10/07 11:15:46;;;;;;;3.88;3.13;;;;;;;4.56;nan;96791.63;4825978;29;20045;-72
2023/10/07 11:18:14;;;;;;;2.47;2.13;;;;;;;4.60;nan;96743.72;4823869;29;20179;-73
2023/10/07 11:20:43;;;;;;;2.70;1.60;;;;;;;5.06;nan;96736.75;4856074;29;20046;-74
2023/10/07 11:23:10;;;;;;;3.50;2.95;;;;;;;4.81;nan;96732.13;4856137;29;20057;-72
2023/10/07 11:25:35;;;;;;;4.75;3.00;;;;;;;4.74;nan;96731.84;4856184;29;20053;-73
2023/10/07 11:28:09;;;;;;;4.20;3.00;;;;;;;4.92;nan;96719.56;4856402;29;20060;-72
2023/10/07 11:30:48;;;;;;;5.83;2.77;;;;;;;5.11;nan;96693.06;4836506;29;20057;-72
2023/10/07 11:33:19;;;;;;;2.10;1.88;;;;;;;5.09;nan;96700.28;4827492;29;20048;-72
2023/10/07 11:35:59;;;;;;;5.57;3.08;;;;;;;5.09;nan;96689.72;4857093;29;20041;-73
2023/10/07 11:38:26;;;;;;;3.20;2.55;;;;;;;5.26;nan;96679.34;4821939;29;20387;-71
2023/10/07 11:40:52;;;;;;;7.13;2.90;;;;;;;5.07;nan;96675.03;4827591;29;20053;-72
2023/10/07 11:43:17;;;;;;;4.85;3.40;;;;;;;5.11;nan;96671.94;4852640;29;20049;-73
2023/10/07 11:45:44;;;;;;;3.78;3.30;;;;;;;;;;4825054;29;20053;-72
2023/10/07 11:48:09;;;;;;;1.40;1.27;;;;;;;;;;4854477;29;20438;-71
2023/10/07 11:50:35;;;;;;;4.95;3.33;;;;;;;5.13;nan;96685.00;4824647;29;20498;-72
2023/10/07 11:53:07;;;;;;;5.70;4.25;;;;;;;5.15;nan;96650.53;4851811;29;20050;-72
2023/10/07 11:55:33;;;;;;;7.10;4.40;;;;;;;5.16;nan;96646.91;4853909;29;20057;-71
2023/10/07 11:58:02;;;;;;;3.42;2.35;;;;;;;5.35;nan;96631.75;4848596;29;20071;-69
2023/10/07 12:00:29;;;;;;;5.10;3.22;;;;;;;5.30;nan;96638.47;4862581;29;20059;-72
2023/10/07 12:02:58;;;;;;;7.60;3.58;;;;;;;5.33;nan;96627.59;4861841;29;20043;-74
2023/10/07 12:05:27;;;;;;;7.85;3.80;;;;;;;5.37;nan;96623.69;4860752;29;20127;-73
2023/10/07 12:08:02;;;;;;;4.25;3.35;;;;;;;5.40;nan;96597.78;4861778;29;20048;-77
2023/10/07 12:10:27;;;;;;;;;;;;;;;5.48;nan;96607.59;4860498;29;20063;-79
2023/10/07 12:12:53;;;;;;;5.65;3.20;;;;;;;5.51;nan;96624.97;4842175;29;20276;-73
2023/10/07 12:15:18;;;;;;;5.57;4.15;;;;;;;5.57;nan;96587.34;4860737;29;20053;-75
2023/10/07 12:17:49;;;;;;;4.93;3.67;;;;;;;5.64;nan;96546.97;4846223;29;20056;-76
2023/10/07 12:20:15;;;;;;;7.85;5.30;;;;;;;5.69;nan;96579.03;4861627;29;20059;-76
2023/10/07 12:22:42;;;;;;;5.40;3.75;;;;;;;5.73;nan;96546.03;4846290;29;20055;-74
2023/10/07 12:25:16;;;;;;;6.68;4.25;;;;;;;5.80;nan;96535.66;4845995;29;20730;-77
2023/10/07 12:27:49;;;;;;;3.15;2.45;;;;;;;5.84;nan;96543.13;4845115;29;20052;-80
2023/10/07 12:30:21;;;;;;;4.60;2.90;;;;;;;5.98;nan;96528.50;4861210;29;20052;-68
2023/10/07 12:32:48;;;;;;;6.03;3.03;;;;;;;6.00;nan;96515.13;4841111;29;20056;-72
2023/10/07 12:35:13;;;;;;;1.60;1.45;;;;;;;5.99;nan;96539.91;4829820;29;20056;-69
2023/10/07 12:37:51;;;;;;;7.82;4.65;;;;;;;5.92;nan;96512.44;4846516;29;20111;-69
2023/10/07 12:40:17;;;;;;;6.35;3.10;;;;;;;5.90;nan;96488.81;4863139;29;20052;-68
2023/10/07 12:42:50;;;;;;;3.05;1.90;;;;;;;;;;4863918;29;20143;-69
2023/10/07 12:45:16;;;;;;;3.50;3.13;;;;;;;6.08;nan;96470.22;4839482;29;20052;-69
2023/10/07 12:47:42;;;;;;;7.00;3.67;;;;;;;;;;4860640;29;20040;-69
2023/10/07 12:52:54;;;;;;;15.43;4.03;;;;;;;6.24;nan;96435.06;4860839;29;20044;-70
2023/10/07 12:55:21;;;;;;;5.38;2.85;;;;;;;6.33;nan;96436.72;4840819;29;20056;-69
2023/10/07 12:57:49;;;;;;;3.10;2.25;;;;;;;;;;4860343;29;20060;-69
2023/10/07 13:00:27;;;;;;;5.00;3.30;;;;;;;;;;4841084;29;20056;-72
2023/10/07 13:02:53;;;;;;;6.38;3.70;;;;;;;;;;4860817;29;20126;-72
2023/10/07 13:05:19;;;;;;;4.65;2.90;;;;;;;6.25;nan;96408.44;4860726;29;20044;-70
2023/10/07 13:07:45;;;;;;;5.10;3.60;;;;;;;;;;4844045;29;20520;-78
2023/10/07 13:10:11;;;;;;;5.05;3.85;;;;;;;6.24;nan;96390.09;4859757;29;20535;-74
2023/10/07 13:12:37;;;;;;;6.18;3.65;;;;;;;;;;4861699;29;20074;-77
2023/10/07 13:15:03;;;;;;;8.98;3.22;;;;;;;6.41;nan;96378.56;4861703;29;20055;-76
2023/10/07 13:17:33;;;;;;;6.00;3.42;;;;;;;6.34;nan;96370.44;4860584;29;20049;-78
2023/10/07 13:19:59;;;;;;;4.28;3.47;;;;;;;6.36;nan;96357.06;4860517;29;20063;-75
2023/10/07 13:22:24;;;;;;;4.97;3.53;;;;;;;6.36;nan;96357.88;4861589;29;20507;-73
2023/10/07 13:24:49;;;;;;;4.57;3.42;;;;;;;6.41;nan;96350.28;4860983;29;20512;-72
2023/10/07 13:27:16;;;;;;;10.68;3.67;;;;;;;6.42;nan;96346.66;4861490;29;20058;-77
2023/10/07 13:29:41;;;;;;;4.78;3.75;;;;;;;6.48;nan;96340.69;4860424;29;20052;-77
2023/10/07 13:32:46;;;;;;;5.15;3.70;;;;;;;6.50;100.00;96333.41;4869276;27;20234;-70
2023/10/07 13:35:15;;;;;;;5.30;3.67;;;;;;;6.53;100.00;96327.81;5027762;28;20043;-77
2023/10/07 13:37:40;;;;;;;7.28;3.47;;;;;;;;;;5060325;28;20130;-75
2023/10/07 13:40:15;;;;;;;5.95;4.32;;;;;;;6.51;nan;96313.91;5063691;28;20135;-77